Time;durP1;ratioP1;P1;durP2;ratioP2;P2;SDS_P1;SDS_P2;PMS_P1;PMS_P2;Temp;Humidity;BMP_temperature;BMP_pressure;BME280_temperature;BME280_humidity;BME280_pressure;Samples;Min_cycle;Max_cycle;Signal;HPM_P1;HPM_P2
2022/01/25 00:10:14;;;;;;;8.88;4.82;;;2.40;99.90;;;;;;5095011;28;20751;-53
2022/01/25 00:15:52;;;;;;;6.85;4.00;;;2.40;99.90;;;;;;5094747;28;20425;-54
2022/01/25 00:26:36;;;;;;;6.88;4.22;;;2.50;99.90;;;;;;5096276;28;20475;-55
2022/01/25 00:29:07;;;;;;;10.60;4.47;;;2.50;99.90;;;;;;5096424;28;20729;-54
2022/01/25 00:31:37;;;;;;;8.57;5.57;;;2.50;99.90;;;;;;5096569;28;20779;-54
2022/01/25 00:34:04;;;;;;;7.57;4.07;;;2.40;99.90;;;;;;5096798;28;20902;-51
2022/01/25 00:36:32;;;;;;;9.48;4.30;;;2.40;99.90;;;;;;5095795;28;20465;-54
2022/01/25 00:39:00;;;;;;;8.27;4.40;;;2.50;99.90;;;;;;5096566;28;20434;-54
2022/01/25 00:41:29;;;;;;;6.97;3.60;;;2.60;99.90;;;;;;5096081;28;20464;-54
2022/01/25 00:43:59;;;;;;;6.32;3.95;;;2.70;99.90;;;;;;5096036;28;20810;-54
2022/01/25 00:46:26;;;;;;;7.03;4.28;;;2.70;99.90;;;;;;5096627;28;20414;-51
2022/01/25 00:48:56;;;;;;;6.28;3.40;;;2.70;99.90;;;;;;5095637;28;20460;-52
2022/01/25 00:54:17;;;;;;;6.90;4.87;;;2.40;99.90;;;;;;5094460;28;20761;-52
2022/01/25 00:56:47;;;;;;;4.88;3.60;;;2.30;99.90;;;;;;5095091;28;20434;-50
2022/01/25 00:59:16;;;;;;;6.25;3.75;;;2.20;99.90;;;;;;5094773;28;20426;-52
2022/01/25 01:01:44;;;;;;;5.80;4.20;;;2.20;99.90;;;;;;5094828;28;20469;-52
2022/01/25 01:04:11;;;;;;;8.90;4.75;;;2.20;99.90;;;;;;5095921;28;20422;-53
2022/01/25 01:06:40;;;;;;;6.75;4.40;;;2.20;99.90;;;;;;5096516;28;20457;-51
2022/01/25 01:09:08;;;;;;;10.05;5.40;;;2.10;99.90;;;;;;5096148;28;20422;-53
2022/01/25 01:11:41;;;;;;;9.02;5.03;;;2.10;99.90;;;;;;5096015;28;20455;-55
2022/01/25 01:14:16;;;;;;;8.33;6.17;;;2.10;99.90;;;;;;5096110;28;20449;-53
2022/01/25 01:17:08;;;;;;;7.25;4.82;;;2.20;99.90;;;;;;5095747;28;20844;-54
2022/01/25 01:31:05;;;;;;;5.68;4.38;;;2.10;99.90;;;;;;5093905;28;20444;-54
2022/01/25 01:39:34;;;;;;;5.90;3.72;;;1.90;99.90;;;;;;5094865;28;20808;-52
2022/01/25 01:45:26;;;;;;;6.72;3.45;;;1.90;99.90;;;;;;5032820;28;20403;-55
2022/01/25 01:48:01;;;;;;;7.20;4.20;;;1.80;99.90;;;;;;5032524;28;20415;-52
2022/01/25 01:50:31;;;;;;;7.20;3.65;;;1.90;99.90;;;;;;5074112;28;20821;-52
2022/01/25 01:52:59;;;;;;;6.78;3.60;;;1.80;99.90;;;;;;5095278;28;20417;-54
2022/01/25 01:55:27;;;;;;;6.13;3.33;;;1.90;99.90;;;;;;5094713;28;20468;-52
2022/01/25 01:57:55;;;;;;;6.68;4.18;;;1.90;99.90;;;;;;5094639;28;20468;-54
2022/01/25 02:00:27;;;;;;;7.50;3.97;;;1.90;99.90;;;;;;5095240;28;20773;-49
2022/01/25 02:02:55;;;;;;;6.88;3.78;;;1.90;99.90;;;;;;5095103;28;20494;-53
2022/01/25 02:05:22;;;;;;;6.37;4.10;;;1.90;99.90;;;;;;5094304;28;20441;-58
2022/01/25 02:07:49;;;;;;;7.55;4.82;;;1.90;99.90;;;;;;5093665;28;20465;-55
2022/01/25 02:10:16;;;;;;;7.30;5.03;;;1.90;99.90;;;;;;5093563;28;20418;-53
2022/01/25 02:12:46;;;;;;;8.65;4.55;;;1.90;99.90;;;;;;5093829;28;20442;-53
2022/01/25 02:15:13;;;;;;;6.30;4.55;;;1.90;99.90;;;;;;5093143;28;20422;-53
2022/01/25 02:17:57;;;;;;;8.83;5.30;;;1.90;99.90;;;;;;5093705;28;20516;-56
2022/01/25 02:23:18;;;;;;;9.25;4.72;;;2.00;99.90;;;;;;5094964;28;20402;-54
2022/01/25 02:25:45;;;;;;;8.32;5.65;;;2.00;99.90;;;;;;5094907;28;20457;-56
2022/01/25 02:28:12;;;;;;;9.02;5.68;;;2.10;99.90;;;;;;5094072;28;20500;-53
2022/01/25 02:30:40;;;;;;;9.10;5.00;;;2.10;99.90;;;;;;5094517;28;20449;-54
2022/01/25 02:33:07;;;;;;;8.73;5.00;;;2.10;99.90;;;;;;5095233;28;20417;-55
2022/01/25 02:35:36;;;;;;;8.13;5.33;;;2.10;99.90;;;;;;5095191;28;20481;-53
2022/01/25 02:38:03;;;;;;;7.70;5.00;;;2.00;99.90;;;;;;5094989;28;20438;-53
2022/01/25 02:40:30;;;;;;;5.65;4.05;;;1.90;99.90;;;;;;5094923;28;20425;-55
2022/01/25 02:42:57;;;;;;;8.60;5.28;;;1.90;99.90;;;;;;5095310;28;20813;-53
2022/01/25 02:45:29;;;;;;;6.97;4.72;;;1.90;99.90;;;;;;5094814;28;20467;-50
2022/01/25 02:50:42;;;;;;;10.00;5.90;;;1.90;99.90;;;;;;5094626;28;20860;-48
2022/01/25 02:53:09;;;;;;;8.65;4.90;;;1.90;99.90;;;;;;5094808;28;20418;-55
2022/01/25 02:55:36;;;;;;;10.00;5.60;;;2.00;99.90;;;;;;5094802;28;20478;-52
2022/01/25 02:58:05;;;;;;;10.50;6.07;;;1.90;99.90;;;;;;5093902;28;20457;-49
2022/01/25 03:00:32;;;;;;;11.93;6.97;;;1.90;99.90;;;;;;5094602;28;20425;-51
2022/01/25 03:03:00;;;;;;;9.75;6.55;;;1.90;99.90;;;;;;5093991;28;20445;-56
2022/01/25 03:05:28;;;;;;;10.63;6.50;;;1.90;99.90;;;;;;5093201;28;20425;-54
2022/01/25 03:07:57;;;;;;;8.93;6.03;;;2.00;99.90;;;;;;5096111;28;20413;-55
2022/01/25 03:10:24;;;;;;;9.50;5.82;;;2.00;99.90;;;;;;5097239;28;20421;-55
2022/01/25 03:12:55;;;;;;;8.77;6.38;;;2.00;99.90;;;;;;5097615;28;20438;-54
2022/01/25 03:15:42;;;;;;;9.35;5.75;;;2.00;99.90;;;;;;5096867;28;20428;-54
2022/01/25 03:18:23;;;;;;;10.02;5.55;;;2.00;99.90;;;;;;5098223;28;20406;-51
2022/01/25 03:20:59;;;;;;;7.43;5.07;;;1.90;99.90;;;;;;5097813;28;20749;-55
2022/01/25 03:23:29;;;;;;;9.57;5.70;;;1.80;99.90;;;;;;5097945;28;20418;-54
2022/01/25 03:25:56;;;;;;;10.27;5.93;;;1.70;99.90;;;;;;5098190;28;20429;-53
2022/01/25 03:28:23;;;;;;;7.70;5.15;;;1.70;99.90;;;;;;5097528;28;20805;-54
2022/01/25 03:30:51;;;;;;;8.85;5.20;;;1.70;99.90;;;;;;5097904;28;20781;-52
2022/01/25 03:33:18;;;;;;;9.70;5.40;;;1.70;99.90;;;;;;5097372;28;20778;-55
2022/01/25 03:35:46;;;;;;;10.30;6.13;;;1.80;99.90;;;;;;5096678;28;20496;-54
2022/01/25 03:38:13;;;;;;;9.23;5.57;;;2.00;99.90;;;;;;5096448;28;20457;-54
2022/01/25 03:40:42;;;;;;;11.20;6.60;;;2.10;99.90;;;;;;5096791;28;20475;-55
2022/01/25 03:43:09;;;;;;;12.07;6.88;;;2.00;99.90;;;;;;5097278;28;20428;-53
2022/01/25 03:45:39;;;;;;;12.23;7.88;;;1.80;99.90;;;;;;5096402;28;20496;-54
2022/01/25 03:50:51;;;;;;;11.32;6.82;;;1.70;99.90;;;;;;5095723;28;20404;-53
2022/01/25 03:53:20;;;;;;;12.63;7.80;;;1.70;99.90;;;;;;5096714;28;20536;-55
2022/01/25 03:55:49;;;;;;;9.27;6.45;;;1.70;99.90;;;;;;5096592;28;20833;-52
2022/01/25 03:58:16;;;;;;;12.80;8.10;;;1.60;99.90;;;;;;5096860;28;20472;-52
2022/01/25 04:00:44;;;;;;;10.63;6.13;;;1.70;99.90;;;;;;5098008;28;20418;-50
2022/01/25 04:03:16;;;;;;;10.32;6.22;;;1.70;99.90;;;;;;5097848;28;20783;-52
2022/01/25 04:05:51;;;;;;;11.05;7.20;;;1.70;99.90;;;;;;5097574;28;20425;-50
2022/01/25 04:08:19;;;;;;;11.20;7.17;;;1.70;99.90;;;;;;5097214;28;20449;-52
2022/01/25 04:10:47;;;;;;;11.80;7.88;;;1.60;99.90;;;;;;5095520;28;20471;-55
2022/01/25 04:13:15;;;;;;;12.27;7.93;;;1.60;99.90;;;;;;5095656;28;20453;-53
2022/01/25 04:15:44;;;;;;;10.75;7.18;;;1.60;99.90;;;;;;5096007;28;20478;-54
2022/01/25 04:18:24;;;;;;;13.00;7.78;;;1.60;99.90;;;;;;5096010;28;20481;-53
2022/01/25 04:21:00;;;;;;;11.98;7.72;;;1.60;99.90;;;;;;5095446;28;20491;-53
2022/01/25 04:26:13;;;;;;;15.63;8.80;;;1.40;99.90;;;;;;5097012;28;20400;-55
2022/01/25 04:28:39;;;;;;;12.90;8.90;;;1.30;99.90;;;;;;5097369;28;20450;-55
2022/01/25 04:31:06;;;;;;;16.55;9.00;;;1.20;99.90;;;;;;5096830;28;20468;-53
2022/01/25 04:33:42;;;;;;;11.38;7.93;;;1.20;99.90;;;;;;5097280;28;20744;-55
2022/01/25 04:49:54;;;;;;;14.50;8.73;;;1.30;99.90;;;;;;5096493;28;20401;-53
2022/01/25 04:52:25;;;;;;;13.95;9.20;;;1.30;99.90;;;;;;5096588;28;20846;-55
2022/01/25 04:54:59;;;;;;;14.15;9.02;;;1.20;99.90;;;;;;5096097;28;20429;-53
2022/01/25 04:57:40;;;;;;;12.77;7.75;;;1.30;99.90;;;;;;5095771;28;20450;-53
2022/01/25 05:00:15;;;;;;;13.68;8.38;;;1.40;99.90;;;;;;5096669;28;20418;-53
2022/01/25 05:02:48;;;;;;;13.23;8.45;;;1.40;99.90;;;;;;5096113;28;20483;-53
2022/01/25 05:05:20;;;;;;;14.50;8.60;;;1.30;99.90;;;;;;5096322;28;20430;-55
2022/01/25 05:07:54;;;;;;;12.98;8.27;;;1.30;99.90;;;;;;5096275;28;20813;-55
2022/01/25 05:10:21;;;;;;;13.10;8.70;;;1.10;99.90;;;;;;5096042;28;20414;-53
2022/01/25 05:12:54;;;;;;;12.75;9.10;;;0.90;99.90;;;;;;5095123;28;20430;-51
2022/01/25 05:15:26;;;;;;;13.02;8.52;;;0.90;99.90;;;;;;5095034;28;20837;-54
2022/01/25 05:18:12;;;;;;;13.00;8.33;;;0.80;99.90;;;;;;5095465;28;20520;-54
2022/01/25 05:23:24;;;;;;;15.45;9.38;;;0.70;99.90;;;;;;5094309;28;20748;-52
2022/01/25 05:25:51;;;;;;;13.40;8.10;;;0.80;99.90;;;;;;5094571;28;20480;-55
2022/01/25 05:28:19;;;;;;;12.80;8.30;;;0.80;99.90;;;;;;5095208;28;20551;-53
2022/01/25 05:30:46;;;;;;;13.63;8.43;;;0.80;99.90;;;;;;5093492;28;20450;-54
2022/01/25 05:33:13;;;;;;;12.90;8.10;;;0.80;99.90;;;;;;5093364;28;20510;-54
2022/01/25 05:35:40;;;;;;;14.45;9.43;;;0.90;99.90;;;;;;5093859;28;20452;-52
2022/01/25 05:38:07;;;;;;;13.57;8.50;;;1.00;99.90;;;;;;5093663;28;20558;-49
2022/01/25 05:40:44;;;;;;;13.20;7.83;;;1.10;99.90;;;;;;5093483;28;20523;-52
2022/01/25 05:46:10;;;;;;;11.40;7.93;;;1.10;99.90;;;;;;5058615;28;20394;-55
2022/01/25 05:48:37;;;;;;;12.20;7.75;;;1.10;99.90;;;;;;5093188;28;20468;-53
2022/01/25 05:51:04;;;;;;;14.83;8.30;;;1.10;99.90;;;;;;5092672;28;20460;-53
2022/01/25 05:53:31;;;;;;;13.20;8.60;;;1.10;99.90;;;;;;5093146;28;20461;-54
2022/01/25 05:55:58;;;;;;;12.50;7.30;;;1.60;99.90;;;;;;5092956;28;20418;-54
2022/01/25 05:58:25;;;;;;;11.63;7.95;;;1.50;99.90;;;;;;5093545;28;20812;-50
2022/01/25 06:00:54;;;;;;;12.20;7.60;;;1.40;99.90;;;;;;5093285;28;20501;-52
2022/01/25 06:03:23;;;;;;;11.45;7.15;;;1.30;99.90;;;;;;5093495;28;20479;-53
2022/01/25 06:05:50;;;;;;;12.67;8.10;;;1.30;99.90;;;;;;5094820;28;20520;-52
2022/01/25 06:08:16;;;;;;;13.20;7.60;;;1.30;99.90;;;;;;5094225;28;20503;-50
2022/01/25 06:10:43;;;;;;;12.13;8.10;;;1.30;99.90;;;;;;5093585;28;20429;-51
2022/01/25 06:13:10;;;;;;;12.40;7.30;;;1.40;99.90;;;;;;5093361;28;20513;-53
2022/01/25 06:15:37;;;;;;;11.32;7.25;;;1.40;99.90;;;;;;5093044;28;20512;-53
2022/01/25 06:18:07;;;;;;;15.50;8.90;;;1.50;99.90;;;;;;5094287;28;20880;-51
2022/01/25 06:20:34;;;;;;;12.23;8.20;;;1.40;99.90;;;;;;5093913;28;20484;-53
2022/01/25 06:23:01;;;;;;;13.48;8.52;;;1.50;99.90;;;;;;5093424;28;20475;-53
2022/01/25 06:25:28;;;;;;;11.27;7.53;;;1.50;99.90;;;;;;5094422;28;20449;-53
2022/01/25 06:27:55;;;;;;;10.93;7.13;;;1.50;99.90;;;;;;5094201;28;20461;-52
2022/01/25 06:30:23;;;;;;;10.75;7.78;;;1.50;99.90;;;;;;5094205;28;20422;-55
2022/01/25 06:32:50;;;;;;;11.13;7.85;;;1.50;99.90;;;;;;5094396;28;20849;-49
2022/01/25 06:35:19;;;;;;;10.57;6.78;;;1.50;99.90;;;;;;5093564;28;20479;-55
2022/01/25 06:37:46;;;;;;;15.25;8.00;;;1.50;99.90;;;;;;5093571;28;20437;-55
2022/01/25 06:40:16;;;;;;;11.25;7.68;;;1.50;99.90;;;;;;5093487;28;20898;-53
2022/01/25 06:42:43;;;;;;;13.23;7.60;;;1.70;99.90;;;;;;5092367;28;20521;-53
2022/01/25 06:45:13;;;;;;;13.07;8.20;;;1.60;99.90;;;;;;5096388;28;20457;-54
2022/01/25 06:47:41;;;;;;;12.68;7.97;;;1.60;99.90;;;;;;5095464;28;20516;-53
2022/01/25 06:50:08;;;;;;;12.30;8.43;;;1.40;99.90;;;;;;5094935;28;20453;-50
2022/01/25 06:52:39;;;;;;;10.53;7.57;;;1.30;99.90;;;;;;5094991;28;20457;-51
2022/01/25 06:55:07;;;;;;;12.25;7.65;;;1.20;99.90;;;;;;5093728;28;20792;-55
2022/01/25 06:57:34;;;;;;;12.23;7.28;;;1.30;99.90;;;;;;5094889;28;20546;-51
2022/01/25 07:00:05;;;;;;;12.63;8.48;;;1.30;99.90;;;;;;5094019;28;20458;-53
2022/01/25 07:02:31;;;;;;;11.55;7.80;;;1.40;99.90;;;;;;5094856;28;20421;-53
2022/01/25 07:04:58;;;;;;;9.98;7.35;;;1.50;99.90;;;;;;5095283;28;20861;-53
2022/01/25 07:07:25;;;;;;;11.30;7.10;;;1.60;99.90;;;;;;5095627;28;20457;-54
2022/01/25 07:09:54;;;;;;;10.10;6.32;;;1.50;99.90;;;;;;5095563;28;20447;-53
2022/01/25 07:12:20;;;;;;;11.40;7.70;;;1.70;99.90;;;;;;5095393;28;20511;-54
2022/01/25 07:14:47;;;;;;;9.23;6.32;;;2.00;99.90;;;;;;5094586;28;20503;-55
2022/01/25 07:17:14;;;;;;;9.85;6.93;;;2.10;99.90;;;;;;5093870;28;20924;-52
2022/01/25 07:19:41;;;;;;;14.15;8.25;;;2.00;99.90;;;;;;5094753;28;20491;-55
2022/01/25 07:22:08;;;;;;;11.82;7.57;;;1.90;99.90;;;;;;5096641;28;20460;-55
2022/01/25 07:24:35;;;;;;;9.80;6.68;;;1.80;99.90;;;;;;5095557;28;20450;-55
2022/01/25 07:27:04;;;;;;;9.93;6.55;;;1.60;99.90;;;;;;5092077;28;20517;-54
2022/01/25 07:29:31;;;;;;;11.15;6.57;;;1.50;99.90;;;;;;5095839;28;20445;-56
2022/01/25 07:31:59;;;;;;;12.35;7.60;;;1.50;99.90;;;;;;5094552;28;20492;-57
2022/01/25 07:34:26;;;;;;;12.13;6.88;;;1.60;99.90;;;;;;5093971;28;20447;-55
2022/01/25 07:36:54;;;;;;;13.18;7.60;;;1.80;99.90;;;;;;5094282;28;20461;-53
2022/01/25 07:39:21;;;;;;;11.00;6.13;;;1.80;99.90;;;;;;5090572;28;20517;-54
2022/01/25 07:41:48;;;;;;;12.48;7.05;;;1.90;99.90;;;;;;5092183;28;20432;-53
2022/01/25 07:44:17;;;;;;;12.30;7.00;;;2.20;99.90;;;;;;5093300;28;20469;-54
2022/01/25 07:46:44;;;;;;;11.38;7.90;;;2.20;99.90;;;;;;5092993;28;20461;-52
2022/01/25 07:49:11;;;;;;;13.15;7.55;;;2.10;99.90;;;;;;5094699;28;20429;-54
2022/01/25 07:51:37;;;;;;;12.55;6.95;;;1.90;99.90;;;;;;5095017;28;20454;-53
2022/01/25 07:54:04;;;;;;;10.38;6.65;;;2.30;99.90;;;;;;5093705;28;20524;-55
2022/01/25 07:56:31;;;;;;;13.05;7.80;;;2.30;99.90;;;;;;5091280;28;20468;-52
2022/01/25 07:58:58;;;;;;;10.98;6.97;;;2.20;99.90;;;;;;5093931;28;20460;-55
2022/01/25 08:01:26;;;;;;;12.68;8.43;;;2.10;99.90;;;;;;5091463;28;20478;-55
2022/01/25 08:03:53;;;;;;;13.02;8.60;;;1.90;99.90;;;;;;5082582;28;20432;-52
2022/01/25 08:06:21;;;;;;;12.20;8.80;;;1.70;99.90;;;;;;5093654;28;20555;-52
2022/01/25 08:08:48;;;;;;;13.18;8.80;;;1.60;99.90;;;;;;5092188;28;20613;-52
2022/01/25 08:11:15;;;;;;;15.40;8.95;;;1.50;99.90;;;;;;5091980;28;20464;-52
2022/01/25 08:13:47;;;;;;;13.63;9.00;;;1.50;99.90;;;;;;5091688;28;20805;-51
2022/01/25 08:16:17;;;;;;;14.25;8.88;;;1.50;99.90;;;;;;5092321;28;20429;-55
2022/01/25 08:18:48;;;;;;;11.40;7.07;;;1.50;99.90;;;;;;5092265;28;20436;-53
2022/01/25 08:21:18;;;;;;;11.52;7.10;;;1.60;99.90;;;;;;5092004;28;20518;-54
2022/01/25 08:23:48;;;;;;;13.27;7.80;;;2.40;99.90;;;;;;5091843;28;20495;-53
2022/01/25 08:26:15;;;;;;;12.35;8.38;;;2.40;99.90;;;;;;5091371;28;20468;-55
2022/01/25 08:28:42;;;;;;;13.43;8.37;;;2.40;99.90;;;;;;5091188;28;20453;-54
2022/01/25 08:31:09;;;;;;;13.17;8.17;;;2.40;99.90;;;;;;5091343;28;20501;-54
2022/01/25 08:33:36;;;;;;;10.97;7.63;;;2.20;99.90;;;;;;5090052;28;20845;-54
2022/01/25 08:36:05;;;;;;;12.52;8.52;;;2.10;99.90;;;;;;5090688;28;20758;-56
2022/01/25 08:38:32;;;;;;;13.40;9.20;;;1.90;99.90;;;;;;5089762;28;20465;-54
2022/01/25 08:40:59;;;;;;;13.20;9.00;;;1.80;99.90;;;;;;5092040;28;20453;-56
2022/01/25 08:43:26;;;;;;;16.25;9.95;;;1.80;99.90;;;;;;5092220;28;20469;-52
2022/01/25 08:45:53;;;;;;;14.52;9.13;;;1.90;99.90;;;;;;5084348;28;20421;-51
2022/01/25 08:48:20;;;;;;;14.90;9.43;;;2.00;99.90;;;;;;5092487;28;20865;-54
2022/01/25 08:50:47;;;;;;;13.50;9.18;;;2.10;99.90;;;;;;5089391;28;20511;-53
2022/01/25 08:53:15;;;;;;;13.05;8.60;;;2.10;99.90;;;;;;5090927;28;20514;-55
2022/01/25 08:55:42;;;;;;;12.68;8.40;;;2.20;99.90;;;;;;5089425;28;20433;-54
2022/01/25 08:58:09;;;;;;;13.95;9.52;;;2.00;99.90;;;;;;5091962;28;20461;-50
2022/01/25 09:00:36;;;;;;;12.52;8.57;;;2.00;99.90;;;;;;5092482;28;20524;-51
2022/01/25 09:03:03;;;;;;;15.75;9.20;;;1.90;99.90;;;;;;5093139;28;20481;-53
2022/01/25 09:05:31;;;;;;;11.87;8.50;;;1.80;99.90;;;;;;5093985;28;20457;-53
2022/01/25 09:07:58;;;;;;;12.00;8.73;;;1.90;99.90;;;;;;5093182;28;20438;-53
2022/01/25 09:10:27;;;;;;;13.38;8.98;;;1.90;99.90;;;;;;5093143;28;20422;-53
2022/01/25 09:12:54;;;;;;;13.20;8.20;;;1.90;99.90;;;;;;5092154;28;20472;-54
2022/01/25 09:15:22;;;;;;;11.48;7.35;;;1.90;99.90;;;;;;5088332;28;20802;-53
2022/01/25 09:17:49;;;;;;;13.50;7.80;;;2.10;99.90;;;;;;5091158;28;20528;-51
2022/01/25 09:20:16;;;;;;;13.32;8.52;;;2.40;99.90;;;;;;5091666;28;20483;-52
2022/01/25 09:22:43;;;;;;;10.20;7.95;;;2.50;99.90;;;;;;5091540;28;20557;-54
2022/01/25 09:25:12;;;;;;;12.00;7.53;;;2.60;99.90;;;;;;5091520;28;20426;-48
2022/01/25 09:27:41;;;;;;;12.48;6.72;;;3.00;99.90;;;;;;5090915;28;20856;-52
2022/01/25 09:30:08;;;;;;;13.40;8.20;;;3.20;99.90;;;;;;5091426;28;20460;-50
2022/01/25 09:32:35;;;;;;;10.30;7.30;;;3.20;99.90;;;;;;5092811;28;20606;-50
2022/01/25 09:35:02;;;;;;;12.63;8.40;;;3.60;99.90;;;;;;5090757;28;20854;-50
2022/01/25 09:37:29;;;;;;;9.98;7.07;;;3.50;99.90;;;;;;5092726;28;20433;-53
2022/01/25 09:39:56;;;;;;;10.47;6.57;;;3.40;99.90;;;;;;5088057;28;20776;-50
2022/01/25 09:42:28;;;;;;;11.57;7.60;;;3.60;99.90;;;;;;5090349;28;20441;-52
2022/01/25 09:44:56;;;;;;;10.00;7.22;;;3.90;99.90;;;;;;5091926;28;20425;-55
2022/01/25 09:47:26;;;;;;;13.07;7.80;;;4.30;99.90;;;;;;5092439;28;20445;-55
2022/01/25 09:49:54;;;;;;;14.23;9.63;;;4.50;99.90;;;;;;5092152;28;20508;-55
2022/01/25 09:52:21;;;;;;;14.25;9.02;;;4.50;99.90;;;;;;5091568;28;20430;-55
2022/01/25 09:54:54;;;;;;;14.52;9.70;;;4.60;99.90;;;;;;5091613;28;20464;-53
2022/01/25 09:57:21;;;;;;;20.25;13.20;;;4.90;99.90;;;;;;5090976;28;20430;-51
2022/01/25 09:59:49;;;;;;;19.83;14.27;;;4.70;99.90;;;;;;5089041;28;20426;-51
2022/01/25 10:02:40;;;;;;;16.20;12.30;;;4.40;99.90;;;;;;5091114;28;20713;-55
2022/01/25 10:05:24;;;;;;;17.65;13.10;;;4.10;99.90;;;;;;5091347;28;20704;-54
2022/01/25 10:07:59;;;;;;;16.80;10.80;;;3.90;99.90;;;;;;5092254;28;20607;-53
2022/01/25 10:10:28;;;;;;;16.25;12.10;;;4.10;99.90;;;;;;5090599;28;20425;-57
2022/01/25 10:12:56;;;;;;;18.38;12.25;;;4.40;99.90;;;;;;5092396;28;20426;-54
2022/01/25 10:15:27;;;;;;;15.07;10.98;;;4.50;99.90;;;;;;5092791;28;20465;-55
2022/01/25 10:17:55;;;;;;;15.63;10.65;;;4.90;99.90;;;;;;5091578;28;20841;-54
2022/01/25 10:20:27;;;;;;;17.97;13.20;;;5.00;99.90;;;;;;5091744;28;20466;-55
2022/01/25 10:22:59;;;;;;;18.38;11.95;;;5.00;99.90;;;;;;5087971;28;20458;-53
2022/01/25 10:25:32;;;;;;;17.02;11.70;;;4.70;99.90;;;;;;5092135;28;20547;-54
2022/01/25 10:28:03;;;;;;;16.70;10.52;;;4.80;99.90;;;;;;5092026;28;20437;-52
2022/01/25 10:30:38;;;;;;;16.85;11.60;;;4.90;99.90;;;;;;5090500;28;20422;-53
2022/01/25 10:33:32;;;;;;;14.60;10.05;;;4.90;99.90;;;;;;5093418;28;20865;-54
2022/01/25 10:36:02;;;;;;;13.60;9.93;;;4.90;99.90;;;;;;5090608;28;20785;-55
2022/01/25 10:38:31;;;;;;;14.48;10.50;;;5.20;99.90;;;;;;5090879;28;20453;-54
2022/01/25 10:41:01;;;;;;;13.23;9.63;;;5.40;99.90;;;;;;5087575;28;20456;-54
2022/01/25 10:43:29;;;;;;;13.18;10.05;;;5.60;99.90;;;;;;5089825;28;20433;-55
2022/01/25 10:46:08;;;;;;;13.02;9.10;;;5.60;99.90;;;;;;5086548;28;20433;-51
2022/01/25 10:48:37;;;;;;;14.60;10.05;;;5.60;99.90;;;;;;5085046;28;20421;-53
2022/01/25 10:51:06;;;;;;;12.13;8.48;;;5.70;99.90;;;;;;5091050;28;20426;-54
2022/01/25 10:53:33;;;;;;;15.15;9.13;;;5.60;99.90;;;;;;5089794;28;20449;-53
2022/01/25 10:56:01;;;;;;;11.75;9.02;;;5.50;99.90;;;;;;5091415;28;20457;-55
2022/01/25 10:58:29;;;;;;;15.23;9.43;;;5.60;99.90;;;;;;5090151;28;20524;-54
2022/01/25 11:00:58;;;;;;;14.75;9.68;;;5.70;99.90;;;;;;5089947;28;20851;-53
2022/01/25 11:03:31;;;;;;;13.60;10.18;;;5.80;99.90;;;;;;5091561;28;20550;-56
2022/01/25 11:06:10;;;;;;;12.32;7.80;;;5.90;99.90;;;;;;5090072;28;20837;-56
2022/01/25 11:08:38;;;;;;;12.77;9.30;;;6.20;99.90;;;;;;5087317;28;20512;-55
2022/01/25 11:11:09;;;;;;;13.73;10.18;;;6.20;99.90;;;;;;5088564;28;20751;-56
2022/01/25 11:13:39;;;;;;;13.50;9.30;;;6.30;99.90;;;;;;5085516;28;20852;-54
2022/01/25 11:16:09;;;;;;;14.23;10.05;;;6.00;99.90;;;;;;5086513;28;20532;-54
2022/01/25 11:18:37;;;;;;;14.65;9.18;;;6.10;99.90;;;;;;5087261;28;20433;-54
2022/01/25 11:21:07;;;;;;;17.10;10.63;;;6.20;99.90;;;;;;5087238;28;20505;-51
2022/01/25 11:23:36;;;;;;;16.00;11.13;;;6.10;99.90;;;;;;5087530;28;20458;-53
2022/01/25 11:26:05;;;;;;;14.52;10.75;;;6.20;99.90;;;;;;5088143;28;20513;-50
2022/01/25 11:28:32;;;;;;;15.10;10.68;;;6.10;99.90;;;;;;5084100;28;20523;-55
2022/01/25 11:31:01;;;;;;;13.80;9.90;;;5.90;99.90;;;;;;5093197;28;20718;-53
2022/01/25 11:33:29;;;;;;;16.77;11.68;;;5.90;99.90;;;;;;5093638;28;20496;-52
2022/01/25 11:35:56;;;;;;;14.73;11.15;;;5.90;99.90;;;;;;5092549;28;20502;-53
2022/01/25 11:38:38;;;;;;;14.55;10.88;;;5.70;99.90;;;;;;5093912;28;20495;-53
2022/01/25 11:41:10;;;;;;;14.65;11.50;;;5.70;99.90;;;;;;5092893;28;20418;-54
2022/01/25 11:43:37;;;;;;;14.30;10.63;;;5.60;99.90;;;;;;5090976;28;20418;-55
2022/01/25 11:46:07;;;;;;;14.10;10.77;;;5.50;99.90;;;;;;5089816;28;20445;-53
2022/01/25 11:48:45;;;;;;;13.03;10.53;;;5.80;99.90;;;;;;5091971;28;20496;-54
2022/01/25 11:51:18;;;;;;;16.83;10.90;;;5.80;99.90;;;;;;5090770;28;20503;-55
2022/01/25 11:53:49;;;;;;;17.38;11.23;;;5.90;99.90;;;;;;5092233;28;20446;-52
2022/01/25 11:56:18;;;;;;;16.27;11.40;;;6.00;99.90;;;;;;5092305;28;20521;-53
2022/01/25 11:58:55;;;;;;;15.00;10.55;;;5.90;99.90;;;;;;5090984;28;20910;-54
2022/01/25 12:01:23;;;;;;;18.83;12.90;;;6.10;99.90;;;;;;5090332;28;20719;-55
2022/01/25 12:03:52;;;;;;;16.13;11.20;;;5.90;99.90;;;;;;5091026;28;20418;-53
2022/01/25 12:06:23;;;;;;;15.20;11.32;;;5.90;99.90;;;;;;5088559;28;20792;-53
2022/01/25 12:09:15;;;;;;;13.32;10.93;;;6.10;99.90;;;;;;5093479;28;20490;-53
2022/01/25 12:11:45;;;;;;;17.00;11.88;;;6.30;99.90;;;;;;5093086;28;20430;-54
2022/01/25 12:14:28;;;;;;;14.30;11.27;;;6.40;99.90;;;;;;5089236;28;20513;-48
2022/01/25 12:17:10;;;;;;;16.17;12.03;;;6.30;99.90;;;;;;5091946;28;20932;-50
2022/01/25 12:19:44;;;;;;;18.55;12.57;;;6.30;99.90;;;;;;5094752;28;20430;-48
2022/01/25 12:22:28;;;;;;;18.88;11.88;;;6.60;99.90;;;;;;5093566;28;20442;-45
2022/01/25 12:25:06;;;;;;;19.58;13.55;;;6.60;99.90;;;;;;5090352;28;20803;-49
2022/01/25 12:27:52;;;;;;;14.07;10.93;;;6.50;99.90;;;;;;5093216;28;20734;-52
2022/01/25 12:30:36;;;;;;;21.37;14.10;;;6.50;99.90;;;;;;5090874;28;20973;-48
2022/01/25 12:33:05;;;;;;;17.27;12.82;;;6.00;99.90;;;;;;5094419;28;20737;-48
2022/01/25 12:35:49;;;;;;;21.10;14.43;;;6.00;99.90;;;;;;5093807;28;20430;-48
2022/01/25 12:38:19;;;;;;;19.50;13.90;;;5.80;99.90;;;;;;5088174;28;20520;-49
2022/01/25 12:40:58;;;;;;;61.00;23.17;;;5.70;99.90;;;;;;5092326;28;20509;-47
2022/01/25 12:43:28;;;;;;;26.77;14.20;;;5.80;99.90;;;;;;5087519;28;20524;-48
2022/01/25 12:45:58;;;;;;;19.20;12.95;;;6.10;99.90;;;;;;5092340;28;20834;-48
2022/01/25 12:48:28;;;;;;;16.90;11.55;;;5.90;99.90;;;;;;5092939;28;20457;-52
2022/01/25 12:50:57;;;;;;;18.33;11.57;;;6.00;99.90;;;;;;5092619;28;20422;-48
2022/01/25 12:53:26;;;;;;;18.27;12.32;;;6.20;99.90;;;;;;5090538;28;21085;-48
2022/01/25 12:55:56;;;;;;;19.75;13.00;;;6.30;99.90;;;;;;5087139;28;20521;-49
2022/01/25 12:58:26;;;;;;;18.35;13.27;;;6.40;99.90;;;;;;5088718;28;20829;-46
2022/01/25 13:00:55;;;;;;;15.15;10.30;;;6.40;99.90;;;;;;5090128;28;20466;-52
2022/01/25 13:03:31;;;;;;;16.15;11.57;;;6.40;99.90;;;;;;5089565;28;20528;-52
2022/01/25 13:06:02;;;;;;;17.40;11.25;;;6.30;99.90;;;;;;5087719;28;20506;-53
2022/01/25 13:08:34;;;;;;;17.38;11.02;;;6.10;99.90;;;;;;5091452;28;20508;-50
2022/01/25 13:11:30;;;;;;;16.52;11.00;;;5.80;99.90;;;;;;5093052;28;20720;-52
2022/01/25 13:14:15;;;;;;;17.83;12.37;;;5.80;99.90;;;;;;5090995;28;20465;-51
2022/01/25 13:16:46;;;;;;;18.95;12.73;;;5.90;99.90;;;;;;5092468;28;20467;-49
2022/01/25 13:19:14;;;;;;;15.02;10.73;;;5.80;99.90;;;;;;5091818;28;20457;-53
2022/01/25 13:21:44;;;;;;;18.02;11.85;;;5.70;99.90;;;;;;5091612;28;20527;-52
2022/01/25 13:24:15;;;;;;;16.50;11.02;;;5.70;99.90;;;;;;5092425;28;20430;-52
2022/01/25 13:26:56;;;;;;;17.45;10.98;;;5.70;99.90;;;;;;5093039;28;20852;-51
2022/01/25 13:32:20;;;;;;;17.20;11.70;;;5.50;99.90;;;;;;5086250;28;20547;-50
2022/01/25 13:35:18;;;;;;;16.40;11.80;;;5.50;99.90;;;;;;5091620;28;21079;-50
2022/01/25 13:37:46;;;;;;;19.42;12.38;;;5.60;99.90;;;;;;5094115;28;20490;-52
2022/01/25 13:40:15;;;;;;;16.50;10.80;;;5.50;99.90;;;;;;5093339;28;20858;-52
2022/01/25 13:42:56;;;;;;;17.80;11.95;;;5.40;99.90;;;;;;5093073;28;20463;-49
2022/01/25 13:48:10;;;;;;;18.35;12.10;;;5.50;99.90;;;;;;5092859;28;20424;-51
2022/01/25 13:50:39;;;;;;;18.92;13.38;;;5.50;99.90;;;;;;5093581;28;20422;-52
2022/01/25 13:53:08;;;;;;;21.10;13.73;;;5.50;99.90;;;;;;5090830;28;20430;-52
2022/01/25 13:55:37;;;;;;;18.13;12.95;;;5.40;99.90;;;;;;5091991;28;20483;-52
2022/01/25 13:58:20;;;;;;;18.83;12.93;;;5.50;99.90;;;;;;5091613;28;20461;-50
2022/01/25 14:00:47;;;;;;;18.73;12.57;;;5.40;99.90;;;;;;5086728;28;20456;-48
2022/01/25 14:03:15;;;;;;;19.17;13.40;;;5.40;99.90;;;;;;5092475;28;20472;-49
2022/01/25 14:05:43;;;;;;;19.05;12.68;;;5.30;99.90;;;;;;5091572;28;20440;-49
2022/01/25 14:08:10;;;;;;;22.80;14.20;;;5.40;99.90;;;;;;5092500;28;20460;-49
2022/01/25 14:10:42;;;;;;;20.63;14.02;;;5.30;99.90;;;;;;5091468;28;20460;-51
2022/01/25 14:21:54;;;;;;;24.10;16.63;;;4.90;99.90;;;;;;5093837;28;20860;-53
2022/01/25 14:24:30;;;;;;;20.80;13.50;;;4.80;99.90;;;;;;5076142;28;20433;-52
2022/01/25 14:26:58;;;;;;;22.17;13.85;;;4.80;99.90;;;;;;5093472;28;20471;-51
2022/01/25 14:29:26;;;;;;;21.53;13.83;;;4.80;99.90;;;;;;5091842;28;20430;-51